Date,TemperatureHighF,TemperatureAvgF,TemperatureLowF,DewpointHighF,DewpointAvgF,DewpointLowF,HumidityHigh,HumidityAvg,HumidityLow,PressureMaxIn,PressureMinIn,WindSpeedMaxMPH,WindSpeedAvgMPH,GustSpeedMaxMPH,PrecipitationSumIn
2013-1-1,46.9,42.5,37.3,46.5,41.0,31.9,99,94,77,30.21,30.03,6,0,6,1.00
2013-1-2,45.9,38.8,36.2,45.6,37.5,34.9,100,95,91,30.22,30.01,16,1,16,0.01
2013-1-3,39.4,34.8,26.6,35.6,31.9,25.1,97,90,73,30.43,30.18,12,2,12,0.00
2013-1-4,42.4,30.5,21.1,30.3,23.7,19.9,97,79,43,30.50,30.39,15,2,15,0.00
2013-1-5,39.8,25.7,20.2,35.8,23.4,18.5,95,91,81,30.48,30.34,3,0,3,0.02
2013-1-6,46.4,38.4,32.8,39.8,34.9,30.3,97,87,69,30.35,30.20,14,2,14,0.05
2013-1-7,56.2,37.5,23.9,34.9,27.8,22.4,99,72,29,30.47,30.32,13,1,13,0.00
2013-1-8,58.3,40.8,25.1,47.7,36.4,23.6,97,85,62,30.49,30.37,15,1,15,0.00
2013-1-9,56.1,50.7,45.5,55.3,49.7,44.0,98,96,93,30.49,30.41,4,0,4,0.03
2013-1-10,65.6,56.0,47.7,60.1,51.7,47.4,99,87,65,30.48,30.24,22,3,22,0.00
2013-1-11,65.0,60.6,57.6,61.8,58.8,54.3,98,94,87,30.24,30.11,19,2,19,0.27
2013-1-12,72.6,62.3,56.7,65.6,59.4,55.0,99,91,65,30.18,30.06,13,1,13,0.04
2013-1-13,67.6,63.0,55.4,60.5,58.2,54.3,97,85,75,30.11,30.00,14,1,14,1.03
2013-1-14,60.7,49.6,43.0,59.8,49.0,42.5,99,98,97,30.23,30.02,12,0,12,1.23
2013-1-15,56.7,48.5,43.8,56.7,48.3,43.5,100,99,99,30.18,29.99,5,0,5,1.54
2013-1-16,60.2,54.4,48.2,60.2,54.2,47.8,100,99,98,30.04,29.93,9,1,9,0.64
2013-1-17,48.3,42.7,32.4,48.0,42.1,30.6,99,98,93,30.33,29.69,17,2,17,1.09
2013-1-18,52.7,35.8,25.1,35.0,29.6,24.1,98,81,40,30.59,30.33,9,0,9,0.01
2013-1-19,53.9,36.1,22.1,38.2,28.3,20.8,97,77,36,30.53,30.31,9,1,9,0.00
2013-1-20,57.1,37.1,23.8,40.5,29.8,22.6,97,79,39,30.32,30.18,13,1,13,0.01
2013-1-21,47.5,34.2,24.2,38.3,23.5,15.2,98,69,37,30.26,30.16,19,4,19,0.00
2013-1-22,35.6,27.9,21.8,15.7,9.8,4.7,60,47,31,30.40,30.25,19,6,19,0.00
2013-1-23,47.6,33.7,26.5,27.6,18.6,6.8,89,55,41,30.46,30.25,16,2,16,0.00
2013-1-24,45.5,35.5,22.4,39.5,22.1,4.7,95,61,26,30.45,30.21,20,5,20,0.00
2013-1-25,33.3,30.2,22.2,32.5,24.7,10.5,97,82,44,30.45,30.22,17,1,17,0.01
2013-1-26,50.3,36.2,27.2,37.0,30.8,25.4,98,84,41,30.41,30.25,9,1,9,0.03
2013-1-27,52.1,38.2,23.9,37.5,30.4,22.7,97,76,52,30.54,30.40,14,2,14,0.00
2013-1-28,56.8,47.4,40.9,51.7,41.5,31.6,96,80,62,30.48,30.32,13,1,13,0.00
2013-1-29,63.6,52.8,39.8,60.0,50.2,38.9,99,91,81,30.34,29.98,15,1,15,0.01
2013-1-30,66.4,63.7,60.9,63.1,60.5,57.6,97,89,79,29.98,29.55,24,4,24,0.67
2013-1-31,41.9,34.0,29.1,27.8,25.6,23.3,87,72,48,30.18,30.11,14,1,14,0.01
2013-2-1,40.7,28.6,18.9,31.6,17.1,9.2,91,63,39,30.47,30.14,24,6,24,0.00
2013-2-2,32.7,25.5,16.7,31.7,23.0,14.4,97,90,64,30.47,30.23,9,0,9,0.01
2013-2-3,46.2,35.7,28.9,36.0,29.9,25.5,98,81,52,30.24,30.09,18,3,18,0.37
2013-2-4,48.0,34.7,24.0,34.7,27.9,21.9,94,78,50,30.23,30.08,9,0,9,0.00
2013-2-5,59.2,42.0,33.5,45.1,36.7,31.2,100,84,44,30.12,30.01,8,0,8,0.00
2013-2-6,61.6,42.1,29.1,45.5,31.8,26.4,99,74,28,30.27,30.11,11,1,11,0.01
2013-2-7,48.6,41.0,32.1,47.9,39.2,29.5,99,93,86,30.24,30.01,12,0,12,0.20
2013-2-8,51.7,43.7,34.1,47.1,40.9,29.6,99,90,63,30.26,29.98,17,3,17,0.11
2013-2-9,61.7,39.5,23.6,36.1,29.0,22.4,98,72,24,30.40,30.23,6,0,6,0.01
2013-2-10,54.0,45.9,34.5,49.4,35.5,23.7,98,71,32,30.37,30.13,23,3,23,0.86
2013-2-11,54.4,49.1,39.0,53.8,47.3,37.9,100,94,67,30.17,30.06,12,1,12,0.16
2013-2-12,51.0,42.0,32.0,42.8,36.5,29.7,97,83,46,30.18,29.90,9,0,9,0.22
2013-2-13,48.1,41.9,34.6,46.3,39.8,31.4,98,92,83,30.03,29.75,18,3,18,0.04
2013-2-14,54.4,41.4,33.0,36.6,32.6,29.9,89,73,41,30.14,30.02,12,2,12,0.00
2013-2-15,56.2,44.1,28.4,42.4,36.4,27.7,97,77,41,30.20,30.06,18,3,18,0.12
2013-2-16,34.9,30.4,25.3,32.0,22.9,13.7,95,75,46,30.20,30.02,23,6,23,0.00
2013-2-17,39.1,28.2,19.0,18.3,14.2,9.9,84,57,36,30.37,30.20,18,4,18,0.00
2013-2-18,56.7,37.9,18.1,30.5,23.6,16.2,94,62,33,30.45,30.17,25,2,25,0.00
2013-2-19,51.3,42.9,35.6,46.5,28.8,15.3,97,61,27,30.21,30.02,21,5,21,0.27
2013-2-20,43.2,33.6,24.0,20.1,14.7,2.6,80,49,20,30.26,30.20,17,4,17,0.00
2013-2-21,64.8,41.1,22.4,40.4,24.4,2.7,95,61,11,30.29,30.04,15,1,15,0.51
2013-2-22,49.2,44.5,40.0,45.3,42.3,38.7,97,92,85,30.23,30.06,18,1,18,0.60
2013-2-23,57.6,48.6,39.4,53.2,46.9,38.3,99,94,81,30.08,29.87,7,0,7,0.49
2013-2-24,57.7,42.5,29.4,38.3,32.1,26.8,98,72,32,30.09,29.95,15,2,15,0.01
2013-2-25,54.4,40.2,28.2,40.6,33.0,26.3,96,78,48,30.11,29.89,17,1,17,0.00
2013-2-26,52.4,45.7,39.9,46.7,41.7,34.3,96,86,73,29.90,29.56,28,4,28,0.71
2013-2-27,53.8,42.3,37.3,39.1,34.9,31.7,96,76,47,29.92,29.77,24,3,24,0.05
2013-2-28,39.7,35.0,32.9,31.8,28.0,25.8,83,75,68,30.06,29.88,21,6,21,0.00
2013-3-1,33.1,32.4,32.1,29.6,28.1,26.2,88,84,76,30.05,30.00,9,2,9,0.00
2013-3-2,33.9,31.1,28.1,29.9,27.0,23.3,92,84,80,30.11,30.01,19,6,19,0.01
2013-3-3,34.8,28.2,22.1,24.7,20.7,17.8,89,74,56,30.17,30.08,19,6,19,0.00
2013-3-4,55.7,36.2,18.2,35.0,24.3,16.5,95,67,34,30.27,30.09,4,0,9,0.00
2013-3-5,54.6,41.8,33.8,52.4,38.8,27.9,98,89,77,30.15,29.72,14,3,24,0.46
2013-3-6,33.9,30.4,27.8,28.9,26.3,21.8,92,85,70,30.29,29.89,15,9,25,0.00
2013-3-7,48.3,35.2,26.8,34.3,28.9,24.8,92,79,55,30.37,30.26,10,3,15,0.00
2013-3-8,59.0,36.9,21.4,33.6,25.2,19.2,97,69,27,30.44,30.30,6,1,12,0.00
2013-3-9,65.3,44.9,25.4,35.7,29.3,23.6,95,61,25,30.40,30.25,5,1,11,0.00
2013-3-10,57.4,49.0,41.5,42.0,35.1,31.0,80,60,43,30.27,30.09,9,3,19,0.00
2013-3-11,58.9,54.6,48.9,52.3,49.4,42.3,97,83,58,30.10,29.79,10,4,22,0.99
2013-3-12,48.7,39.2,35.5,47.9,36.1,30.6,97,89,73,30.16,29.86,9,5,20,0.01
2013-3-13,37.2,32.7,27.5,30.8,27.5,19.1,93,82,61,30.35,30.14,9,1,16,0.00
2013-3-14,43.6,31.5,24.7,29.4,20.0,16.0,77,63,34,30.43,30.33,9,4,18,0.00
2013-3-15,69.7,48.7,27.2,44.1,35.6,25.3,100,65,35,30.33,30.01,11,2,21,0.00
2013-3-16,74.0,60.6,46.5,49.8,44.6,40.9,82,58,38,30.01,29.85,10,2,22,0.00
2013-3-17,69.0,57.4,45.1,52.9,46.6,41.3,90,69,46,30.00,29.91,6,1,18,0.00
2013-3-18,55.8,51.6,45.1,52.9,48.7,44.3,97,90,80,29.98,29.84,10,2,15,0.74
2013-3-19,57.1,46.4,36.4,47.9,34.3,18.9,98,66,32,30.17,29.91,12,4,21,0.01
2013-3-20,53.9,42.4,31.8,31.5,21.8,13.9,78,47,22,30.19,29.95,12,4,24,0.00
2013-3-21,39.9,31.5,23.3,27.7,16.5,10.5,78,55,33,30.07,29.97,11,6,21,0.00
2013-3-22,45.9,35.5,25.1,34.7,24.3,18.1,83,65,41,30.16,30.06,2,0,6,0.00
2013-3-23,54.9,45.5,39.2,49.3,42.5,32.7,97,90,74,30.11,29.81,5,0,12,0.13
2013-3-24,57.9,49.1,39.7,52.2,46.3,31.6,98,90,72,29.90,29.49,15,3,33,1.30
2013-3-25,39.6,32.8,29.7,32.0,26.1,22.7,89,76,66,30.10,29.67,14,8,25,0.00
2013-3-26,36.9,32.1,29.0,30.4,26.4,23.5,87,80,68,30.35,30.09,12,7,20,0.00
2013-3-27,49.2,37.3,28.8,28.1,25.3,22.5,86,64,37,30.41,30.32,10,4,19,0.00
2013-3-28,55.0,39.4,22.9,31.4,25.9,19.7,94,63,32,30.41,30.31,11,3,18,0.00
2013-3-29,55.4,39.0,25.3,40.0,31.0,23.3,94,75,39,30.43,30.29,4,0,9,0.00
2013-3-30,66.3,52.4,42.1,51.7,42.9,36.0,96,75,34,30.29,30.05,9,1,26,0.29
2013-3-31,61.7,55.5,52.2,56.2,53.3,51.3,98,92,73,30.05,29.89,5,1,13,0.54
2013-4-1,63.5,52.8,39.8,54.5,44.5,36.8,100,76,47,30.09,29.90,11,3,17,0.01
2013-4-2,54.2,44.1,35.2,36.8,29.7,18.9,79,59,27,30.23,30.07,13,3,13,0.00
2013-4-3,60.6,52.9,36.8,37.5,31.3,23.3,76,45,24,30.25,30.16,12,2,12,0.00
2013-4-4,51.8,42.0,38.8,41.5,38.4,28.8,97,88,42,30.21,30.00,22,1,22,0.72
2013-4-5,60.5,48.7,39.8,45.8,40.8,36.2,98,77,43,30.15,30.00,17,3,17,0.00
2013-4-6,70.0,50.3,30.1,45.8,35.6,28.8,98,64,26,30.26,30.14,17,2,17,0.01
2013-4-7,71.8,56.9,36.9,48.3,42.1,34.5,94,61,34,30.24,30.10,15,2,15,0.00
2013-4-8,76.0,61.0,44.7,55.0,48.7,42.5,95,67,41,30.17,30.07,16,2,16,0.00
2013-4-9,80.8,64.4,47.2,59.0,52.2,45.6,97,68,39,30.20,30.07,20,2,20,0.00
2013-4-10,85.8,66.8,46.8,60.9,53.6,45.3,100,67,34,30.14,29.93,18,1,18,0.00
2013-4-11,75.5,67.5,59.9,63.9,57.7,54.1,97,72,52,29.95,29.65,20,3,20,0.93
2013-4-12,64.1,57.5,44.8,60.2,49.4,38.9,97,77,41,29.97,29.63,16,3,16,0.43
2013-4-13,70.5,53.0,35.1,45.7,38.2,33.3,100,63,30,30.11,29.97,14,2,14,0.00
2013-4-14,65.6,50.6,36.1,50.6,43.3,34.5,97,78,41,30.10,29.98,23,2,23,0.01
2013-4-15,79.2,63.8,53.2,59.4,54.8,50.3,95,75,47,30.16,29.97,17,2,17,0.00
2013-4-16,80.5,66.7,52.2,63.1,58.5,50.2,97,77,52,30.25,30.14,14,2,14,0.00
2013-4-17,80.9,66.8,58.9,64.7,60.7,57.1,96,83,53,30.23,30.07,18,2,18,0.28
2013-4-18,77.2,67.3,57.6,63.2,58.9,56.4,98,77,52,30.09,29.88,24,3,24,0.01
2013-4-19,69.4,58.9,43.0,63.0,52.9,35.3,95,81,69,30.07,29.74,22,5,22,0.64
2013-4-20,58.3,46.7,34.3,35.2,32.8,29.8,90,61,36,30.32,30.07,19,4,19,0.00
2013-4-21,67.8,48.9,31.0,43.4,35.0,29.2,97,65,28,30.42,30.28,19,2,19,0.00
2013-4-22,72.0,53.5,35.3,43.7,38.8,33.5,96,62,29,30.39,30.16,15,2,15,0.00
2013-4-23,75.5,56.8,35.8,48.6,41.6,33.6,96,62,32,30.26,30.08,14,1,14,0.00
2013-4-24,71.0,57.5,46.8,59.8,52.1,44.8,94,83,59,30.19,30.06,19,2,19,0.16
2013-4-25,64.8,50.4,36.6,44.9,37.4,26.6,97,67,26,30.39,30.19,15,3,15,0.00
2013-4-26,59.5,39.1,30.8,50.7,35.4,29.0,96,87,65,30.46,30.32,5,0,5,0.02
2013-4-27,55.7,53.0,51.0,52.8,50.8,49.1,97,93,85,30.42,30.19,13,1,13,0.63
2013-4-28,56.0,54.2,52.2,55.2,53.0,51.4,100,96,86,30.20,29.99,21,2,21,2.52
2013-4-29,72.8,59.4,49.8,59.0,53.0,48.6,99,82,49,30.08,29.96,11,1,11,0.01
2013-4-30,80.0,60.9,45.7,59.7,51.9,44.6,98,76,41,30.13,30.00,19,1,19,0.01
2013-5-1,73.3,63.4,53.0,57.4,54.5,51.6,96,75,52,30.21,30.12,18,2,18,0.00
2013-5-2,68.7,61.2,51.7,58.1,54.0,49.3,95,77,62,30.21,30.14,17,3,17,0.00
2013-5-3,66.5,60.1,57.8,54.9,53.1,49.4,86,78,59,30.16,29.99,22,4,22,0.00
2013-5-4,59.2,54.4,51.9,52.6,49.7,43.3,97,85,67,30.00,29.88,23,3,23,1.22
2013-5-5,59.3,53.5,47.2,53.2,51.3,45.8,98,92,78,29.89,29.78,22,2,22,1.25
2013-5-6,54.0,48.6,42.7,49.0,46.2,41.9,98,91,79,29.96,29.81,14,1,14,0.07
2013-5-7,67.3,56.2,47.5,53.3,49.6,46.7,98,81,51,30.01,29.92,15,2,15,0.01
2013-5-8,71.8,59.3,49.6,58.1,53.7,48.4,98,83,56,30.09,29.97,13,1,13,0.00
2013-5-9,78.6,62.6,48.0,62.5,53.8,47.1,100,77,42,30.16,30.05,12,1,12,0.00
2013-5-10,73.2,62.2,49.4,62.2,55.9,48.3,98,81,58,30.13,29.97,12,1,12,0.00
2013-5-11,73.3,62.2,56.1,64.0,58.7,55.0,98,89,65,30.01,29.89,16,1,16,0.33
2013-5-12,62.1,56.9,48.8,46.7,38.5,32.6,79,51,36,30.16,30.06,17,5,17,0.00
2013-5-13,63.9,49.9,33.3,41.1,35.5,29.7,95,62,30,30.28,30.15,18,3,18,0.00
2013-5-14,77.7,56.6,34.1,56.3,45.1,32.3,96,70,41,30.31,30.14,13,1,13,0.00
2013-5-15,85.2,65.8,46.8,61.5,52.7,45.4,97,69,29,30.22,30.02,12,2,13,0.00
2013-5-16,81.5,65.2,51.1,64.6,56.5,49.7,97,77,45,30.10,29.99,11,0,11,0.00
2013-5-17,80.0,66.8,54.3,64.0,58.2,53.2,98,76,47,30.12,30.03,15,1,15,0.00
2013-5-18,70.8,65.8,61.6,66.2,63.1,60.3,98,91,82,30.09,30.03,7,0,7,0.36
2013-5-19,68.2,65.5,63.7,66.9,64.3,62.5,98,96,93,30.12,30.03,8,0,8,0.35
2013-5-22,85.1,75.0,63.1,69.3,63.4,59.1,93,69,45,29.93,29.84,0,0,0,0.02
2013-5-23,80.0,68.2,60.1,64.6,59.0,54.0,98,75,46,30.00,29.90,21,1,21,0.01
2013-5-24,67.9,61.4,47.9,55.3,49.0,41.4,86,66,40,30.26,30.00,22,6,22,0.00
2013-5-25,76.5,56.8,37.8,50.7,41.9,34.3,98,65,25,30.38,30.23,14,2,14,0.00
2013-5-26,77.8,59.5,43.4,55.1,48.4,41.5,97,71,35,30.33,30.20,10,1,10,0.00
2013-5-27,84.8,65.7,47.0,62.2,54.5,45.6,97,71,35,30.28,30.13,13,1,13,0.00
2013-5-28,84.8,70.8,57.6,63.5,58.9,52.5,96,70,35,30.20,30.12,18,1,18,0.00
2013-5-29,84.3,69.2,53.8,64.7,58.9,50.6,98,74,32,30.23,30.13,16,2,16,0.00
2013-5-30,81.3,69.0,56.2,64.9,60.7,55.0,98,77,52,30.26,30.14,16,2,16,0.00
2013-5-31,80.8,67.6,59.2,65.9,61.7,57.5,97,83,54,30.21,30.12,16,2,16,0.00
2013-6-1,81.6,76.7,68.3,68.6,66.3,63.4,95,71,56,30.09,29.99,20,3,20,0.08
2013-6-2,74.5,69.6,65.7,71.9,67.9,64.5,98,94,85,30.01,29.88,12,0,12,1.98
2013-6-3,79.1,69.9,62.0,68.8,64.7,59.9,99,85,60,29.99,29.89,14,2,14,0.01
2013-6-4,84.7,69.0,58.1,68.8,61.4,57.4,99,80,44,30.05,29.97,8,0,8,0.00
2013-6-5,82.3,67.1,58.9,69.6,63.0,58.1,98,88,62,30.06,29.93,15,2,15,1.30
2013-6-6,80.4,69.2,61.1,71.3,66.1,60.5,99,91,67,29.96,29.76,14,0,14,0.00
2013-6-7,81.3,69.6,63.3,69.7,65.7,62.2,98,88,61,29.87,29.70,11,1,11,0.24
2013-6-8,79.5,68.3,60.9,68.7,63.7,60.3,99,87,57,30.10,29.86,8,0,8,0.01
2013-6-9,82.9,69.6,60.0,71.8,65.6,59.1,99,88,60,30.13,29.99,14,1,14,0.15
2013-6-10,80.0,70.9,66.4,68.9,65.8,61.3,97,85,57,30.01,29.92,12,1,12,0.28
2013-6-11,83.5,73.8,65.7,73.5,68.9,64.7,99,86,63,30.04,29.95,14,2,14,0.12
2013-6-12,88.8,75.3,65.2,76.5,69.8,64.3,99,85,54,30.08,29.97,15,1,15,0.00
2013-6-13,86.0,73.4,65.6,74.2,69.1,64.8,99,87,64,29.98,29.72,24,2,24,0.31
2013-6-14,83.7,70.1,56.4,66.2,60.6,54.9,98,75,39,30.05,29.86,11,1,11,0.00
2013-6-15,84.5,69.5,53.6,65.7,60.4,52.5,98,76,46,30.16,30.05,9,1,9,0.00
2013-6-16,86.0,71.6,57.1,69.8,63.6,55.9,98,78,48,30.17,30.01,9,0,9,0.09
2013-6-17,81.8,71.5,66.9,73.9,68.7,66.0,98,92,70,30.07,29.94,12,0,12,0.12
2013-6-18,75.8,70.0,65.9,72.2,68.1,65.3,98,94,83,29.96,29.85,15,1,15,0.49
2013-6-19,83.3,70.9,61.4,71.1,65.4,60.6,99,84,56,30.10,29.92,8,0,8,0.01
2013-6-20,84.1,68.6,59.5,69.6,64.1,58.5,98,87,54,30.23,30.09,12,0,12,0.13
2013-6-21,82.3,69.1,62.5,69.7,64.7,61.1,99,87,54,30.27,30.19,17,1,17,0.03
2013-6-22,84.5,70.7,61.2,69.9,63.6,60.6,99,81,50,30.27,30.11,7,0,7,0.00
2013-6-23,75.0,64.8,58.1,70.5,63.1,57.3,98,94,85,30.22,30.12,5,0,5,0.02
2013-6-24,87.0,72.5,63.2,72.8,67.5,62.6,99,86,55,30.24,30.11,11,1,11,0.02
2013-6-25,83.0,71.9,64.5,72.3,68.0,63.5,99,88,67,30.18,30.05,8,0,8,0.00
2013-6-26,71.7,68.0,66.2,69.6,67.0,65.5,99,97,93,30.09,29.94,1,0,2,0.04
2013-6-27,84.7,75.4,68.2,74.5,71.0,66.7,98,87,68,29.99,29.80,14,1,14,0.01
2013-6-28,88.5,73.1,64.7,74.3,67.7,63.5,99,86,49,29.86,29.67,27,1,27,0.45
2013-6-29,82.8,72.5,63.5,71.5,64.9,59.7,99,80,49,29.74,29.67,11,1,11,0.00
2013-6-30,86.0,71.7,57.5,67.8,61.3,53.3,98,74,36,29.81,29.72,12,1,12,0.00
2013-7-1,81.7,69.8,62.9,69.0,65.8,61.6,97,88,60,29.93,29.79,14,1,14,0.28
2013-7-2,78.9,69.6,62.7,73.5,66.7,62.1,99,91,68,30.10,29.93,17,1,17,0.34
2013-7-3,67.8,65.2,62.4,67.5,64.7,61.8,99,98,96,30.20,30.08,9,0,9,0.85
2013-7-4,74.5,68.2,64.0,71.4,67.0,63.4,100,96,88,30.20,30.12,13,1,13,0.34
2013-7-5,78.4,70.4,67.1,71.2,67.8,65.9,98,92,71,30.22,30.14,14,1,14,0.81
2013-7-6,79.4,70.2,66.1,71.6,68.3,65.2,99,94,75,30.18,30.11,12,1,14,1.02
2013-7-7,80.7,72.5,67.5,71.9,69.5,66.9,99,91,70,30.18,30.10,9,0,9,0.06
2013-7-8,86.2,75.3,68.3,74.4,70.4,67.7,99,86,62,30.20,30.10,8,1,8,0.00
2013-7-9,87.7,77.0,67.8,76.7,71.9,66.3,99,85,61,30.17,30.06,17,1,17,1.69
2013-7-10,87.0,72.3,66.9,77.2,70.4,66.3,99,94,65,30.13,29.98,14,0,14,0.16
2013-7-11,85.1,74.1,68.6,73.9,70.9,68.1,99,90,68,29.99,29.88,7,0,7,0.01
2013-7-12,82.7,74.1,67.4,72.6,69.2,65.1,99,86,63,29.97,29.89,13,2,13,0.00
2013-7-13,78.5,71.4,64.4,70.2,66.9,63.5,99,86,71,30.09,29.96,15,1,15,0.00
2013-7-14,78.0,71.3,66.8,73.4,69.0,65.6,98,93,81,30.25,30.07,15,1,15,0.17
2013-7-15,85.2,74.6,65.0,73.9,68.6,63.8,98,83,60,30.32,30.22,13,1,13,0.00
2013-7-16,91.5,76.0,63.4,76.2,69.5,62.7,99,82,48,30.34,30.23,7,0,7,0.00
2013-7-17,91.7,75.5,68.0,76.1,70.6,67.4,99,87,52,30.31,30.14,16,1,16,0.05
2013-7-18,89.5,75.2,67.2,74.9,70.0,66.3,99,86,58,30.25,30.06,9,0,9,0.01
2013-7-19,86.5,75.0,67.0,76.6,70.7,66.3,99,88,63,30.15,29.99,7,0,7,0.07
2013-7-20,87.5,74.6,68.1,75.2,70.2,67.4,99,87,62,30.06,29.92,13,1,13,0.02
2013-7-21,86.6,73.4,66.8,74.6,69.9,66.2,99,90,62,30.05,29.94,14,1,14,0.03
2013-7-22,83.5,74.0,67.0,74.4,70.2,66.4,99,89,67,30.02,29.86,12,1,12,0.10
2013-7-23,72.8,67.5,66.3,70.7,66.3,65.1,98,96,91,29.95,29.88,2,0,2,0.04
2013-7-24,84.2,77.4,67.3,74.5,70.7,65.5,97,81,66,29.89,29.81,10,2,10,0.00
2013-7-25,86.1,71.6,62.6,71.0,65.5,61.6,99,83,49,30.04,29.88,13,1,13,0.00
2013-7-26,76.5,65.2,60.9,70.8,63.8,60.0,98,95,82,30.08,30.00,13,0,13,0.44
2013-7-27,82.5,71.5,64.6,72.7,67.3,64.0,99,88,56,30.04,29.90,11,0,11,0.01
2013-7-28,82.0,70.6,62.2,70.2,65.2,61.5,99,85,56,30.08,29.94,13,1,13,0.00
2013-7-29,79.7,67.0,57.5,65.6,59.8,53.2,98,80,42,30.23,30.07,9,1,9,0.00
2013-7-30,88.3,70.1,55.7,71.9,61.9,54.7,98,79,40,30.27,30.13,6,0,6,0.00
2013-7-31,76.5,71.1,67.5,72.1,69.0,66.6,98,93,83,30.16,29.98,9,0,9,0.32
2013-8-1,82.0,73.4,66.2,73.1,69.3,64.4,99,88,65,30.01,29.93,13,1,13,0.13
2013-8-2,85.8,72.2,62.6,71.4,65.9,61.7,99,83,47,30.06,29.97,8,0,8,0.00
2013-8-3,81.5,71.9,63.9,72.6,67.3,62.9,99,87,60,30.08,30.01,9,1,9,0.00
2013-8-4,82.1,73.7,64.6,71.5,67.9,62.5,99,83,60,30.07,29.99,14,2,14,0.01
2013-8-5,86.1,71.1,59.7,70.7,63.7,58.6,99,80,46,30.10,30.00,10,0,10,0.00
2013-8-6,84.9,73.6,65.8,73.7,68.7,64.6,97,86,65,30.03,29.97,7,0,7,0.00
2013-8-7,83.2,74.1,70.1,74.6,71.3,68.7,98,91,73,30.06,29.98,8,0,8,0.07
2013-8-8,83.5,73.9,68.1,77.3,71.1,67.5,98,91,74,30.07,29.99,12,1,12,1.05
2013-8-9,84.5,73.2,67.1,77.0,71.2,66.5,99,94,71,30.12,30.03,11,0,11,0.56
2013-8-10,83.2,74.3,69.6,77.9,72.3,68.7,99,94,81,30.15,30.09,11,0,11,0.01
2013-8-11,87.0,74.8,67.6,76.3,71.3,66.7,99,90,66,30.18,30.08,8,0,8,0.01
2013-8-12,83.0,74.0,69.9,76.3,72.0,69.6,99,94,76,30.14,30.00,12,0,12,0.00
2013-8-13,82.7,73.5,69.4,74.2,70.7,68.2,99,92,69,30.02,29.88,12,1,12,0.00
2013-8-14,78.5,70.2,65.3,69.9,66.3,63.4,99,88,68,30.05,29.92,13,1,13,1.11
2013-8-15,77.2,67.9,59.8,65.0,62.0,58.3,97,82,62,30.11,30.03,12,1,12,0.00
2013-8-16,74.5,64.7,57.5,65.6,60.6,56.4,98,87,72,30.15,30.07,9,1,9,0.00
2013-8-17,70.3,65.1,62.1,64.6,62.2,59.2,98,91,76,30.17,30.10,9,0,9,0.81
2013-8-18,74.0,67.6,63.1,70.2,66.2,62.5,99,95,82,30.22,30.13,8,0,8,0.51
2013-8-19,76.9,69.1,64.8,74.0,67.9,64.3,99,96,84,30.19,30.08,7,0,7,1.00
2013-8-20,81.3,71.3,62.5,72.6,67.7,61.9,99,89,72,30.20,30.11,11,1,11,0.01
2013-8-21,72.1,68.7,65.2,70.7,67.8,64.6,99,97,92,30.26,30.15,8,0,8,0.74
2013-8-22,82.6,72.4,66.4,75.4,69.5,65.4,100,91,73,30.21,30.07,9,0,9,0.01
2013-8-23,85.4,72.8,64.7,74.2,68.3,64.3,99,87,59,30.12,30.00,9,1,9,0.01
2013-8-24,86.3,72.1,63.6,73.3,67.6,62.8,99,87,62,30.27,30.07,12,1,12,0.00
2013-8-25,83.6,70.0,58.3,68.1,62.7,57.5,98,80,53,30.38,30.26,11,0,11,0.00
2013-8-26,82.4,68.1,58.1,68.5,62.7,57.5,99,85,56,30.34,30.17,12,1,12,0.00
2013-8-27,82.5,69.5,60.9,72.3,65.5,59.8,99,88,63,30.20,30.06,8,0,8,0.01
2013-8-28,85.1,72.0,64.1,73.9,67.7,62.8,99,88,64,30.10,30.00,12,1,12,0.00
2013-8-30,90.0,79.0,70.0,75.4,72.6,68.8,99,82,55,30.04,29.94,4,1,9,0.00
2013-8-31,89.0,75.6,67.1,76.0,70.9,66.5,99,87,58,29.99,29.87,5,1,10,0.00
2013-9-1,86.1,72.7,66.5,75.6,69.7,65.8,99,91,64,29.95,29.85,6,0,10,0.14
2013-9-2,81.2,72.1,66.8,73.0,69.2,66.2,99,91,73,29.99,29.88,3,0,8,0.00
2013-9-3,83.8,73.3,66.7,73.1,68.7,65.2,99,87,61,30.01,29.88,5,1,11,0.80
2013-9-4,85.6,71.6,64.9,71.5,66.7,63.3,99,86,57,30.13,30.01,2,0,8,0.01
2013-9-5,85.6,70.4,62.7,71.1,65.6,61.5,99,87,50,30.17,30.10,5,0,9,0.00
2013-9-6,86.7,72.0,63.1,72.1,65.8,62.1,99,83,50,30.19,30.08,3,0,8,0.01
2013-9-7,84.3,70.6,62.1,71.3,65.5,61.2,99,86,59,30.15,30.02,4,0,7,0.01
2013-9-8,84.2,70.9,62.3,72.3,65.3,61.2,99,85,54,30.06,29.97,7,1,13,0.00
2013-9-9,85.5,71.5,61.8,73.2,67.0,61.2,99,87,61,30.16,30.04,4,0,10,0.00
2013-9-10,88.6,73.0,62.7,72.8,66.6,62.1,99,83,49,30.25,30.16,3,0,8,0.01
2013-9-11,88.3,72.0,63.0,72.7,66.3,62.1,99,85,50,30.26,30.12,3,0,10,0.01
2013-9-12,82.6,72.2,65.9,73.4,69.8,65.3,99,93,72,30.10,29.94,17,0,17,1.28
2013-9-13,76.7,68.1,53.8,68.0,61.7,51.8,99,82,57,29.96,29.87,15,2,15,0.04
2013-9-14,79.7,61.0,47.3,64.6,54.6,46.2,99,82,44,30.13,29.95,9,0,9,0.00
2013-9-15,80.8,64.4,50.2,68.0,58.1,49.4,98,83,51,30.22,30.13,15,1,15,0.00
2013-9-16,81.3,67.0,57.6,69.9,60.8,57.0,99,83,47,30.20,30.11,10,1,10,0.00
2013-9-17,76.3,65.7,57.7,65.1,59.6,56.7,98,82,61,30.25,30.16,17,2,17,0.00
2013-9-18,73.7,63.7,56.1,64.7,59.2,55.3,98,86,67,30.27,30.16,8,0,8,0.00
2013-9-19,82.2,65.9,55.7,69.4,61.0,55.1,99,86,57,30.24,30.09,7,0,7,0.00
2013-9-20,84.2,69.2,59.2,69.2,63.2,58.6,99,84,52,30.13,29.93,12,0,12,0.00
2013-9-21,67.8,64.9,60.1,66.8,63.6,58.1,98,96,92,29.95,29.73,11,1,11,1.62
2013-9-22,74.5,60.2,51.2,62.2,55.8,50.3,99,87,56,29.95,29.81,13,1,13,0.00
2013-9-23,77.8,62.4,52.3,64.3,57.0,51.8,100,85,54,30.07,29.95,11,0,11,0.01
2013-9-24,71.4,61.6,52.9,66.4,59.0,52.1,99,92,78,30.09,29.94,11,0,11,0.00
2013-9-25,66.7,63.3,61.6,64.6,62.0,60.9,99,96,88,29.94,29.85,9,0,9,1.79
2013-9-26,76.7,65.8,59.5,65.6,61.8,58.1,99,88,64,30.05,29.90,12,1,12,0.00
2013-9-27,77.8,63.8,54.8,65.2,58.6,54.1,99,85,56,30.18,30.05,9,0,9,0.01
2013-9-28,76.8,63.1,51.1,65.1,57.1,50.0,99,83,53,30.25,30.12,9,0,9,0.00
2013-9-29,71.5,60.2,49.5,61.4,55.2,48.1,98,85,56,30.18,30.06,7,0,7,0.00
2013-9-30,76.2,61.8,53.1,62.9,56.4,52.3,99,85,50,30.14,30.03,9,0,9,0.00
2013-10-1,74.4,56.2,50.1,63.0,54.2,49.3,99,94,60,30.22,30.11,6,0,6,0.00
2013-10-2,80.8,74.1,56.3,69.1,64.9,55.7,98,75,57,30.21,30.09,9,0,9,0.01
2013-10-3,61.4,60.5,59.6,59.6,58.8,58.2,95,94,93,30.16,30.14,0,0,0,0.00
2013-10-4,84.7,65.4,54.5,67.7,60.4,53.9,99,86,48,30.21,30.11,7,0,7,0.00
2013-10-5,84.2,67.3,57.6,70.1,61.9,56.8,99,85,52,30.18,30.03,9,0,9,0.01
2013-10-6,80.5,66.6,55.1,66.7,61.4,54.3,99,85,58,30.07,29.87,13,1,13,0.18
2013-10-7,67.5,59.0,48.4,64.0,54.5,46.4,98,86,63,30.05,29.84,16,2,16,0.49
2013-10-8,76.2,54.6,46.2,61.0,50.9,45.3,99,89,53,30.18,30.05,10,0,10,0.00
2013-10-9,59.7,54.6,49.1,56.2,52.7,48.6,98,93,88,30.23,30.15,1,0,1,0.00
2013-10-10,71.3,55.3,51.2,62.6,53.1,50.7,99,93,57,30.19,30.12,16,1,16,0.00
2013-10-14,76.8,67.2,55.5,65.4,60.8,54.9,99,81,62,30.26,30.13,9,1,9,0.00
2013-10-15,71.5,61.3,51.8,60.9,56.6,50.1,98,85,64,30.19,30.06,9,0,9,0.00
2013-10-16,68.8,60.2,52.9,61.4,57.0,51.0,98,90,75,30.10,29.99,5,0,5,0.01
2013-10-17,68.2,62.1,55.6,63.3,59.3,51.4,96,91,83,30.01,29.89,12,1,12,0.17
2013-10-18,69.5,54.7,46.3,55.7,49.6,43.5,94,84,54,30.08,29.97,9,0,9,0.00
2013-10-19,63.7,54.1,48.3,55.4,50.3,46.1,98,88,67,30.04,29.96,11,1,11,0.00
2013-10-20,68.0,48.8,36.4,47.1,40.8,34.0,95,78,33,30.14,30.04,8,0,8,0.00
2013-10-21,47.7,39.0,36.7,46.6,37.8,35.7,98,95,92,30.21,30.14,3,0,3,0.00
2013-10-24,56.7,49.0,42.8,41.6,39.8,37.1,90,72,54,30.29,30.19,11,2,12,0.00
2013-10-25,50.9,39.1,27.7,38.4,28.4,24.4,91,68,39,30.46,30.29,8,2,15,0.00
2013-10-26,59.6,39.9,24.7,39.7,30.4,23.2,97,74,34,30.43,30.24,5,1,10,0.00
2013-10-27,54.3,53.1,51.1,50.9,50.1,48.6,92,90,88,30.20,30.18,0,0,1,0.00
2013-10-28,60.5,53.6,49.2,57.4,51.4,47.9,98,93,79,30.30,30.19,3,0,9,0.07
2013-10-29,69.3,60.1,51.8,59.5,55.1,49.9,99,84,65,30.40,30.28,4,0,7,0.00
2013-10-30,76.3,59.3,48.1,60.4,53.1,46.2,98,82,54,30.36,30.18,3,0,7,0.01
2013-10-31,69.4,62.1,54.3,61.4,56.9,51.5,93,83,72,30.21,29.79,7,2,16,0.04
2013-11-1,72.8,63.0,47.1,61.5,54.0,44.6,93,75,37,29.84,29.71,7,2,18,0.19
2013-11-2,61.4,48.5,37.1,50.8,40.5,35.9,98,77,46,30.13,29.83,9,2,18,0.00
2013-11-3,61.2,45.9,33.2,43.4,38.3,31.7,96,77,46,30.38,30.12,4,1,8,0.00
2013-11-4,60.4,43.4,29.1,47.1,34.6,27.8,98,75,44,30.50,30.38,8,2,18,0.00
2013-11-5,53.8,52.0,48.1,40.6,38.4,36.4,72,60,52,30.42,30.41,4,1,9,0.00
2013-11-6,69.3,59.1,46.2,56.5,52.3,40.1,92,79,63,30.41,30.14,9,3,19,0.00
2013-11-7,58.6,50.5,39.9,55.9,46.2,32.7,97,85,67,30.27,30.05,11,3,21,0.27
2013-11-8,56.4,40.7,27.4,37.0,28.5,22.7,95,67,29,30.42,30.27,5,1,11,0.00
2013-11-9,58.1,40.1,25.3,42.3,32.4,23.9,100,77,39,30.43,30.31,3,0,9,0.00
2013-11-10,65.9,47.5,34.6,43.8,36.8,33.1,97,71,31,30.38,30.28,8,2,15,0.00
2013-11-11,66.9,41.3,26.9,41.9,24.5,-99.9,97,66,22,30.40,30.23,4,-55,8,0.00
2013-11-12,50.3,37.2,25.0,41.2,30.4,16.8,96,77,61,30.55,30.22,12,4,23,0.00
2013-11-13,47.3,28.9,15.3,23.1,17.8,13.1,93,67,30,30.69,30.54,4,1,8,0.00
2013-11-14,51.7,26.3,17.0,31.8,19.7,14.8,95,79,28,30.60,30.39,2,0,3,0.00
2013-11-15,50.2,38.8,25.6,49.7,36.9,22.0,98,93,85,30.43,30.22,3,0,11,0.15
2013-11-16,62.3,55.7,48.9,57.3,53.2,48.4,99,92,79,30.27,30.17,5,1,11,0.00
2013-11-17,64.8,60.7,58.7,64.2,57.7,54.7,98,90,85,30.18,29.93,6,2,16,0.18
2013-11-18,64.7,57.0,45.1,64.1,44.2,32.4,98,65,37,30.12,29.90,12,4,20,0.02
2013-11-19,57.9,43.9,33.5,33.8,30.3,25.1,86,61,30,30.25,30.09,7,1,12,0.00
2013-11-20,56.9,41.2,25.9,37.0,29.9,24.3,96,68,36,30.42,30.24,8,2,17,0.00
2013-11-21,61.1,50.0,36.5,54.7,45.8,30.6,95,86,76,30.45,30.34,7,2,14,0.00
2013-11-22,63.3,58.4,56.2,59.7,56.0,53.5,97,92,88,30.38,30.20,4,0,7,0.12
2013-11-23,56.6,44.2,33.8,55.5,39.7,23.3,96,84,65,30.35,30.19,9,5,16,0.01
2013-11-24,40.5,29.3,22.0,23.4,17.0,12.8,83,62,35,30.56,30.34,9,3,16,0.00
2013-11-25,46.3,34.8,21.1,35.8,21.3,6.7,93,63,22,30.56,30.28,6,1,12,0.10
2013-11-26,47.8,40.9,37.1,47.5,40.0,35.3,99,97,93,30.28,29.74,8,2,13,3.08
2013-11-27,38.0,30.8,23.8,37.0,27.6,19.4,96,88,76,30.32,29.76,11,8,23,0.02
2013-11-28,48.4,28.9,15.3,29.3,21.6,13.4,94,77,40,30.58,30.32,4,0,9,0.00
2013-11-29,56.0,33.6,21.0,35.1,26.4,19.4,97,79,40,30.66,30.53,2,0,6,0.00
2013-11-30,55.5,35.5,22.2,35.0,26.2,21.0,97,74,32,30.63,30.41,5,1,11,0.00
2013-12-1,51.9,33.9,28.4,40.7,30.9,26.1,95,89,66,30.41,30.09,3,0,4,0.00
2013-12-2,47.1,43.2,39.5,45.5,41.4,36.2,97,93,88,30.09,29.88,2,0,3,0.20
2013-12-3,55.4,50.6,45.8,52.7,48.9,45.0,99,94,89,29.95,29.88,4,1,9,0.04
2013-12-4,66.0,58.0,50.8,58.9,54.1,49.0,96,87,77,30.06,29.94,5,1,12,0.00
2013-12-5,68.9,60.7,52.6,62.8,56.1,49.8,94,85,80,30.10,29.99,5,0,8,0.32
2013-12-6,67.7,63.1,47.9,61.0,56.9,43.9,86,80,77,30.09,29.95,6,2,14,0.82
2013-12-7,47.6,40.0,36.6,43.6,36.4,33.7,89,87,85,30.39,30.07,5,1,10,0.00
2013-12-8,49.6,45.4,39.2,47.4,41.5,35.4,92,86,83,30.36,30.15,6,2,15,1.20
2013-12-9,52.7,50.5,45.2,49.5,45.6,39.4,93,83,77,30.18,30.04,3,0,9,0.29
2013-12-10,47.8,38.3,25.4,43.8,33.4,21.5,86,82,71,30.41,29.99,11,3,21,0.45
2013-12-11,52.9,32.6,20.7,32.4,23.2,17.4,87,72,30,30.56,30.40,4,0,8,0.00
2013-12-12,40.5,31.4,21.9,26.3,19.9,10.3,87,66,30,30.55,30.46,7,3,13,0.00
2013-12-13,49.6,32.4,16.9,31.6,23.0,14.7,92,71,37,30.51,30.26,2,0,6,0.00
2013-12-14,50.1,47.0,40.9,48.7,41.7,25.6,95,83,48,30.29,29.85,8,1,16,0.60
2013-12-15,49.0,34.6,26.6,46.8,31.2,23.3,92,87,84,30.28,29.88,10,6,18,0.01
2013-12-16,53.6,33.9,22.8,37.5,28.0,20.3,93,81,42,30.37,30.24,4,0,9,0.00
2013-12-17,60.2,39.2,24.5,42.9,30.9,22.6,100,75,42,30.33,30.12,10,2,21,0.00
2013-12-18,49.4,36.0,25.8,25.4,20.3,11.1,85,57,22,30.39,30.28,8,3,19,0.00
2013-12-19,63.7,37.6,21.0,35.3,26.0,19.0,94,70,23,30.44,30.28,3,0,6,0.00
2013-12-20,63.9,46.3,29.6,52.9,39.0,27.8,94,78,41,30.31,30.18,5,1,9,0.00
2013-12-21,67.3,62.3,56.6,61.8,57.5,52.2,87,84,82,30.17,29.92,8,3,21,0.03
2013-12-22,68.3,58.1,51.6,62.4,54.7,49.1,93,89,80,30.12,29.87,10,1,19,2.44
2013-12-23,51.5,43.4,31.8,49.0,40.0,27.8,93,88,84,30.34,30.06,9,3,19,0.15
2013-12-24,32.9,28.7,19.3,28.0,22.8,16.1,87,79,62,30.51,30.34,10,4,19,0.00
2013-12-25,46.4,28.8,16.3,28.2,20.4,13.6,90,74,37,30.59,30.43,5,1,13,0.00
2013-12-26,49.4,31.3,19.7,35.1,24.1,17.8,98,77,40,30.50,30.38,5,1,10,0.00
2013-12-27,54.8,32.7,20.7,36.1,25.5,18.7,94,78,37,30.58,30.45,2,0,7,0.00
2013-12-28,41.1,31.7,22.9,40.3,30.1,21.2,97,93,91,30.52,30.05,2,0,6,0.88
2013-12-29,48.1,43.7,36.1,46.8,41.2,32.6,98,91,85,30.12,29.93,7,2,12,0.33
2013-12-30,40.1,37.6,34.8,37.7,34.2,30.9,91,87,85,30.28,30.09,5,1,10,0.00
2013-12-31,42.3,33.0,26.3,31.0,26.4,22.8,89,78,47,30.50,30.26,8,1,12,0.00
2014-1-1,49.5,34.0,24.0,34.7,27.0,21.5,91,78,45,30.45,30.21,6,1,11,0.00
2014-1-2,45.2,35.1,18.7,42.4,31.8,14.4,92,88,83,30.21,29.82,14,5,28,0.39